MSC Lily — 3FVB9 — position and weather

sailwx.info

Track history (hours):
 
Tides and Currents Weather Stations Pressure Air Temp Water Temp Dewpoint Dewpoint Depression Visibility Wind Speed Wind Dir Waves Ship Positions

MSC Lily

Last reported at 2018-Jun-19 06:56 UTC. Time now 2018-Jun-20 11:22 UTC.
Position N 48°51' W 005°49'.

Length 299 m; draft 12.9 m.

Type: Ship (hazmat cat A). MMSI: 373134000.

Date/timePositionNaut miles runAvg speedWind from/ knotsBaromVisibWave heightAir tempDewpointWater temp
2018-Jun-19 06:56N 48°51' W 005°49'714.9
2018-Jun-19 06:29N 48°56' W 005°41'815.8
2018-Jun-19 05:58N 48°60' W 005°31'715.8
2018-Jun-19 05:30N 49°04' W 005°21'815.8
2018-Jun-19 05:00N 49°07' W 005°11'815.9
2018-Jun-19 04:29N 49°12' W 004°60'815.9
2018-Jun-19 04:00N 49°16' W 004°50'1015.8
2018-Jun-19 03:22N 49°21' W 004°37'715.9
2018-Jun-19 02:56N 49°25' W 004°28'815.8
2018-Jun-19 02:27N 49°29' W 004°18'2516.1
2018-Jun-19 00:55N 49°41' W 003°45'1416.1
2018-Jun-19 00:04N 49°48' W 003°26'316.2
2018-Jun-18 23:51N 49°49' W 003°22'615.9
2018-Jun-18 23:30N 49°52' W 003°14'816.0
2018-Jun-18 23:00N 49°56' W 003°03'815.8
2018-Jun-18 22:30N 49°59' W 002°52'815.7
2018-Jun-18 22:01N 50°01' W 002°41'3315.7
2018-Jun-18 19:55N 50°10' W 001°51'3714.3
2018-Jun-18 17:18N 49°48' W 001°04'515.6
2018-Jun-18 17:00N 49°46' W 000°58'816.0
2018-Jun-18 16:31N 49°43' W 000°47'815.8
2018-Jun-18 16:00N 49°40' W 000°35'816.0
2018-Jun-18 15:30N 49°37' W 000°24'815.4
2018-Jun-18 15:00N 49°33' W 000°14'713.0
2018-Jun-18 14:30N 49°31' W 000°04'714.8
2018-Jun-18 14:00N 49°28' E 000°06'1 2.4
2018-Jun-18 13:30N 49°28' E 000°08'0 0.0
2018-Jun-18 13:00N 49°28' E 000°08'0 0.0
2018-Jun-18 12:30N 49°28' E 000°08'0 0.0
2018-Jun-18 12:00N 49°28' E 000°08'0 0.0
2018-Jun-18 11:30N 49°28' E 000°08'0 0.0
2018-Jun-18 11:00N 49°28' E 000°08'0 0.0
2018-Jun-18 10:30N 49°28' E 000°08'0 0.0
2018-Jun-18 10:00N 49°28' E 000°08'0 0.0
2018-Jun-18 09:27N 49°28' E 000°08'0 0.0
2018-Jun-18 09:00N 49°28' E 000°08'0 0.0
2018-Jun-18 08:30N 49°28' E 000°08'0 0.0
2018-Jun-18 08:00N 49°28' E 000°08'0 0.0
2018-Jun-18 07:30N 49°28' E 000°08'0 0.0
2018-Jun-18 07:00N 49°28' E 000°08'0 0.0
2018-Jun-18 06:30N 49°28' E 000°08'0 0.0
2018-Jun-18 06:00N 49°28' E 000°08'0 0.0
2018-Jun-18 05:30N 49°28' E 000°08'0 0.0
2018-Jun-18 05:00N 49°28' E 000°08'0 0.0
2018-Jun-18 04:30N 49°28' E 000°08'0 0.0
2018-Jun-18 04:00N 49°28' E 000°08'1 1.5
2018-Jun-18 03:30N 49°27' E 000°09'2 4.0
2018-Jun-18 03:00N 49°28' E 000°06'511.0
2018-Jun-18 02:31N 49°30' W 000°01'611.1
2018-Jun-18 02:00N 49°32' W 000°10'3 6.9
2018-Jun-18 01:31N 49°33' W 000°15'510.0
2018-Jun-18 01:01N 49°36' W 000°21'611.5
2018-Jun-18 00:30N 49°40' W 000°27'4 7.1
2018-Jun-18 00:01N 49°43' W 000°28'712.8
2018-Jun-17 23:30N 49°50' W 000°29'715.2
2018-Jun-17 23:00N 49°57' W 000°31'714.7
2018-Jun-17 22:30N 50°05' W 000°31'713.1
2018-Jun-17 22:00N 50°11' W 000°29'1612.3
2018-Jun-17 20:43N 50°25' W 000°18'512.1
2018-Jun-17 20:17N 50°27' W 000°10'613.5
2018-Jun-17 19:52N 50°28' W 000°01'1213.0
2018-Jun-17 18:58N 50°32' E 000°16'713.3
2018-Jun-17 18:28N 50°34' E 000°26'613.2
2018-Jun-17 18:00N 50°35' E 000°36'713.1
2018-Jun-17 17:30N 50°39' E 000°44'713.3
2018-Jun-17 17:00N 50°43' E 000°53'714.6
2018-Jun-17 16:30N 50°47' E 001°02'714.4
2018-Jun-17 16:00N 50°51' E 001°11'714.5
2018-Jun-17 15:31N 50°56' E 001°20'714.4
2018-Jun-17 15:00N 51°02' E 001°27'714.3
2018-Jun-17 14:30N 51°06' E 001°35'714.2
2018-Jun-17 14:00N 51°11' E 001°44'714.3
2018-Jun-17 13:30N 51°17' E 001°51'714.4
2018-Jun-17 13:00N 51°23' E 001°57'612.5
2018-Jun-17 12:30N 51°24' E 002°07'714.0
2018-Jun-17 12:00N 51°21' E 002°17'714.3
2018-Jun-17 11:30N 51°23' E 002°28'814.7
2018-Jun-17 10:55N 51°23' E 002°41'511.8
2018-Jun-17 10:31N 51°25' E 002°49'815.4
2018-Jun-17 10:01N 51°25' E 003°01'815.7
2018-Jun-17 09:29N 51°25' E 003°14'816.3
2018-Jun-17 09:01N 51°25' E 003°27'611.2
2018-Jun-17 08:30N 51°26' E 003°35'5 9.4
2018-Jun-17 08:00N 51°25' E 003°43'612.8
2018-Jun-17 07:30N 51°21' E 003°51'714.2
2018-Jun-17 07:00N 51°26' E 003°59'612.4
2018-Jun-17 06:31N 51°22' E 004°07'510.7
2018-Jun-17 06:00N 51°21' E 004°15'3 6.7
2018-Jun-17 05:30N 51°18' E 004°16'1 1.9
2018-Jun-17 04:58N 51°17' E 004°15'0 0.0
2018-Jun-17 04:28N 51°17' E 004°15'0 0.0
2018-Jun-17 03:58N 51°17' E 004°15'0 0.0
2018-Jun-17 03:28N 51°17' E 004°15'0 0.0
2018-Jun-17 02:58N 51°17' E 004°15'0 0.0
2018-Jun-17 02:28N 51°17' E 004°15'0 0.0
2018-Jun-17 01:58N 51°17' E 004°15'0 0.0
2018-Jun-17 01:28N 51°17' E 004°15'0 0.0
2018-Jun-17 00:58N 51°17' E 004°15'0 0.0
2018-Jun-17 00:28N 51°17' E 004°15'0 0.0
2018-Jun-16 23:58N 51°17' E 004°15'0 0.0
2018-Jun-16 23:28N 51°17' E 004°15'0 0.0
2018-Jun-16 22:58N 51°17' E 004°15'0 0.0
2018-Jun-16 22:28N 51°17' E 004°15'0 0.0
2018-Jun-16 21:58N 51°17' E 004°15'0 0.0
2018-Jun-16 21:28N 51°17' E 004°15'0 0.0
2018-Jun-16 20:58N 51°17' E 004°15'0 0.0
2018-Jun-16 20:28N 51°17' E 004°15'0 0.0
2018-Jun-16 19:58N 51°17' E 004°15'0 0.0
2018-Jun-16 19:28N 51°17' E 004°15'0 0.0
2018-Jun-16 18:58N 51°17' E 004°15'0 0.0
2018-Jun-16 18:28N 51°17' E 004°15'0 0.0
2018-Jun-16 17:58N 51°17' E 004°15'0 0.0
2018-Jun-16 17:28N 51°17' E 004°15'0 0.0
2018-Jun-16 16:58N 51°17' E 004°15'0 0.0
2018-Jun-16 16:28N 51°17' E 004°15'0 0.0
2018-Jun-16 15:58N 51°17' E 004°15'0 0.0
2018-Jun-16 15:28N 51°17' E 004°15'0 0.0
2018-Jun-16 14:58N 51°17' E 004°15'0 0.0
2018-Jun-16 14:28N 51°17' E 004°15'0 0.0
2018-Jun-16 13:58N 51°17' E 004°15'0 0.0
2018-Jun-16 13:28N 51°17' E 004°15'0 0.0
2018-Jun-16 12:55N 51°17' E 004°15'0 0.0
2018-Jun-16 12:28N 51°17' E 004°15'0 0.0
2018-Jun-16 11:58N 51°17' E 004°15'0 0.0
2018-Jun-16 11:28N 51°17' E 004°15'0 0.0
2018-Jun-16 10:58N 51°17' E 004°15'0 0.0
2018-Jun-16 10:28N 51°17' E 004°15'0 0.0
2018-Jun-16 09:58N 51°17' E 004°15'0 0.0
2018-Jun-16 09:28N 51°17' E 004°15'0 0.0
2018-Jun-16 08:58N 51°17' E 004°15'0 0.0
2018-Jun-16 08:28N 51°17' E 004°15'0 0.0
2018-Jun-16 07:58N 51°17' E 004°15'0 0.0
2018-Jun-16 07:28N 51°17' E 004°15'0 0.0
2018-Jun-16 06:58N 51°17' E 004°15'0 0.0
2018-Jun-16 06:25N 51°17' E 004°15'0 0.0
2018-Jun-16 05:58N 51°17' E 004°15'0 0.0
2018-Jun-16 05:28N 51°17' E 004°15'0 0.0
2018-Jun-16 04:58N 51°17' E 004°15'0 0.0
2018-Jun-16 04:28N 51°17' E 004°15'0 0.0
2018-Jun-16 03:58N 51°17' E 004°15'0 0.0
2018-Jun-16 03:30N 51°17' E 004°15'0 0.0
2018-Jun-16 03:00N 51°17' E 004°15'0 0.0
2018-Jun-16 02:30N 51°17' E 004°15'0 0.1
2018-Jun-16 02:01N 51°17' E 004°15'1 2.4
2018-Jun-16 01:30N 51°18' E 004°16'1 2.5
2018-Jun-16 01:00N 51°19' E 004°16'5 9.6
2018-Jun-16 00:31N 51°23' E 004°13'612.1
2018-Jun-16 00:00N 51°23' E 004°03'4 7.8
2018-Jun-15 23:30N 51°25' E 003°58'612.1
2018-Jun-15 23:01N 51°21' E 003°50'713.2
2018-Jun-15 22:30N 51°25' E 003°42'5 9.8
2018-Jun-15 22:00N 51°25' E 003°35'713.1
2018-Jun-15 21:31N 51°24' E 003°24'816.2
2018-Jun-15 21:00N 51°24' E 003°11'714.5
2018-Jun-15 20:30N 51°25' E 002°60'816.3
2018-Jun-15 20:00N 51°32' E 003°06'919.0
2018-Jun-15 19:30N 51°41' E 003°12'612.3
2018-Jun-15 19:00N 51°47' E 003°15'510.3
2018-Jun-15 18:30N 51°52' E 003°17'918.0
2018-Jun-15 18:00N 52°00' E 003°19'815.6
2018-Jun-15 17:30N 52°08' E 003°21'816.4
2018-Jun-15 17:00N 52°16' E 003°22'917.6
2018-Jun-15 16:30N 52°25' E 003°26'918.9
2018-Jun-15 16:00N 52°34' E 003°29'917.2
2018-Jun-15 15:30N 52°42' E 003°36'918.0
2018-Jun-15 15:00N 52°48' E 003°46'918.4
2018-Jun-15 14:30N 52°56' E 003°55'1019.4
2018-Jun-15 14:00N 53°01' E 004°08'1020.0
2018-Jun-15 13:30N 53°08' E 004°21'1020.0
2018-Jun-15 13:00N 53°16' E 004°29'1020.2
2018-Jun-15 12:30N 53°26' E 004°36'1019.2
2018-Jun-15 12:00N 53°32' E 004°49'1020.1
2018-Jun-15 11:30N 53°35' E 005°05'1020.8
2018-Jun-15 11:00N 53°39' E 005°21'1121.1
2018-Jun-15 10:29N 53°42' E 005°39'6019.8
2018-Jun-15 07:26N 53°58' E 007°17'920.1
2018-Jun-15 07:00N 54°00' E 007°32'816.9
2018-Jun-15 06:30N 53°55' E 007°44'917.0
2018-Jun-15 05:59N 53°52' E 007°57'817.4
2018-Jun-15 05:30N 53°47' E 008°09'816.8
2018-Jun-15 05:00N 53°42' E 008°20'816.3
2018-Jun-15 04:30N 53°36' E 008°30'2 4.7
2018-Jun-15 04:01N 53°35' E 008°32'0 0.0
2018-Jun-15 03:28N 53°35' E 008°32'0 0.0
2018-Jun-15 03:00N 53°35' E 008°32'0 0.0
2018-Jun-15 02:30N 53°35' E 008°32'0 0.0
2018-Jun-15 01:58N 53°35' E 008°32'0 0.0
2018-Jun-15 01:31N 53°35' E 008°32'0 0.0
2018-Jun-15 01:00N 53°35' E 008°32'0 0.0
2018-Jun-15 00:31N 53°35' E 008°32'0 0.0
2018-Jun-15 00:00N 53°35' E 008°32'0 0.0
2018-Jun-14 23:31N 53°35' E 008°32'0 0.0
2018-Jun-14 23:00N 53°35' E 008°32'0 0.0
2018-Jun-14 22:31N 53°35' E 008°32'0 0.0
2018-Jun-14 22:00N 53°35' E 008°32'0 0.0
2018-Jun-14 21:30N 53°35' E 008°32'0 0.0
2018-Jun-14 21:00N 53°35' E 008°32'0 0.0
2018-Jun-14 20:30N 53°35' E 008°32'0 0.0
2018-Jun-14 20:00N 53°35' E 008°32'0 0.0
2018-Jun-14 19:31N 53°35' E 008°32'0 0.0
2018-Jun-14 19:01N 53°35' E 008°32'0 0.0
2018-Jun-14 18:30N 53°35' E 008°32'0 0.0
2018-Jun-14 18:01N 53°35' E 008°32'0 0.0
2018-Jun-14 17:30N 53°35' E 008°32'0 0.0
2018-Jun-14 17:00N 53°35' E 008°32'0 0.0
2018-Jun-14 16:30N 53°35' E 008°32'0 0.0
2018-Jun-14 16:00N 53°35' E 008°32'0 0.0
2018-Jun-14 15:30N 53°35' E 008°32'0 0.0
2018-Jun-14 15:00N 53°35' E 008°32'0 0.0
2018-Jun-14 14:28N 53°35' E 008°32'0 0.0
2018-Jun-14 13:58N 53°35' E 008°32'0 0.0
2018-Jun-14 13:31N 53°35' E 008°32'0 0.0
2018-Jun-14 13:00N 53°35' E 008°32'0 0.0
2018-Jun-14 12:30N 53°35' E 008°32'0 0.0
2018-Jun-14 12:01N 53°35' E 008°32'0 0.0
2018-Jun-14 11:30N 53°35' E 008°32'0 0.0
2018-Jun-14 11:00N 53°35' E 008°32'0 0.0
2018-Jun-14 10:30N 53°35' E 008°32'0 0.0
2018-Jun-14 10:00N 53°35' E 008°32'0 0.0
2018-Jun-14 09:30N 53°35' E 008°32'0 0.0
2018-Jun-14 09:01N 53°35' E 008°32'0 0.0
2018-Jun-14 08:30N 53°35' E 008°32'0 0.6
2018-Jun-14 08:00N 53°35' E 008°32'4 7.2
2018-Jun-14 07:30N 53°37' E 008°28'611.3
2018-Jun-14 07:00N 53°41' E 008°21'612.9
2018-Jun-14 06:30N 53°45' E 008°12'612.4
2018-Jun-14 06:00N 53°50' E 008°05'713.1
2018-Jun-14 05:28N 53°52' E 007°54'5 9.6
2018-Jun-14 04:57N 53°56' E 007°50'511.5
2018-Jun-14 04:30N 54°00' E 007°54'815.4
2018-Jun-14 03:59N 54°01' E 008°08'714.1
2018-Jun-14 03:30N 53°60' E 008°20'1020.1
2018-Jun-14 03:00N 53°58' E 008°36'816.6
2018-Jun-14 02:30N 53°51' E 008°45'715.0
2018-Jun-14 02:01N 53°51' E 008°58'713.6
2018-Jun-14 01:30N 53°53' E 009°09'611.7
2018-Jun-14 01:00N 53°51' E 009°19'611.8
2018-Jun-14 00:30N 53°46' E 009°24'5 9.7
2018-Jun-14 00:01N 53°43' E 009°29'5 9.4
2018-Jun-13 23:30N 53°38' E 009°32'510.0
2018-Jun-13 23:00N 53°35' E 009°38'4 8.6
2018-Jun-13 22:30N 53°34' E 009°45'4 9.0
2018-Jun-13 22:01N 53°33' E 009°52'2 3.8
2018-Jun-13 21:30N 53°32' E 009°55'2 4.8
2018-Jun-13 21:00N 53°30' E 009°56'0 0.2
2018-Jun-13 20:30N 53°30' E 009°56'0 0.0
2018-Jun-13 20:00N 53°30' E 009°56'0 0.0
2018-Jun-13 19:30N 53°30' E 009°56'0 0.0
2018-Jun-13 19:00N 53°30' E 009°56'0 0.0
2018-Jun-13 18:30N 53°30' E 009°56'0 0.0
2018-Jun-13 18:00N 53°30' E 009°56'0 0.0
2018-Jun-13 17:30N 53°30' E 009°56'0 0.0
2018-Jun-13 17:00N 53°30' E 009°56'0 0.0
2018-Jun-13 16:30N 53°30' E 009°56'0 0.0
2018-Jun-13 16:00N 53°30' E 009°56'0 0.0
2018-Jun-13 15:30N 53°30' E 009°56'0 0.0
2018-Jun-13 15:00N 53°30' E 009°56'0 0.0
2018-Jun-13 14:30N 53°30' E 009°56'0 0.0
2018-Jun-13 14:00N 53°30' E 009°56'0 0.0
2018-Jun-13 13:30N 53°30' E 009°56'0 0.0
2018-Jun-13 13:00N 53°30' E 009°56'0 0.0
2018-Jun-13 12:30N 53°30' E 009°56'0 0.0
2018-Jun-13 12:00N 53°30' E 009°56'0 0.0
2018-Jun-13 11:30N 53°30' E 009°56'0 0.0
2018-Jun-13 11:00N 53°30' E 009°56'0 0.0
2018-Jun-13 10:30N 53°30' E 009°56'0 0.0
2018-Jun-13 10:00N 53°30' E 009°56'0 0.0
2018-Jun-13 09:30N 53°30' E 009°56'0 0.0
2018-Jun-13 09:00N 53°30' E 009°56'0 0.0
2018-Jun-13 08:30N 53°30' E 009°56'0 0.0
2018-Jun-13 08:00N 53°30' E 009°56'0 0.0
2018-Jun-13 07:30N 53°30' E 009°56'0 0.0
2018-Jun-13 07:00N 53°30' E 009°56'0 0.0
2018-Jun-13 06:30N 53°30' E 009°56'0 0.0
2018-Jun-13 06:00N 53°30' E 009°56'0 0.0
2018-Jun-13 05:30N 53°30' E 009°56'0 0.0
2018-Jun-13 05:00N 53°30' E 009°56'0 0.0
2018-Jun-13 04:30N 53°30' E 009°56'0 0.0
2018-Jun-13 04:00N 53°30' E 009°56'0 0.0
2018-Jun-13 03:30N 53°30' E 009°56'0 0.0
2018-Jun-13 03:00N 53°30' E 009°56'0 0.0
2018-Jun-13 02:30N 53°30' E 009°56'0 0.0
2018-Jun-13 02:00N 53°30' E 009°56'0 0.0
2018-Jun-13 01:30N 53°30' E 009°56'0 0.0
2018-Jun-13 01:00N 53°30' E 009°56'0 0.0
2018-Jun-13 00:30N 53°30' E 009°56'0 0.0
2018-Jun-13 00:00N 53°30' E 009°56'0 0.0
2018-Jun-12 23:30N 53°30' E 009°56'0 0.0
2018-Jun-12 23:00N 53°30' E 009°56'0 0.0
2018-Jun-12 22:30N 53°30' E 009°56'0 0.0
2018-Jun-12 22:00N 53°30' E 009°56'0 0.0
2018-Jun-12 21:30N 53°30' E 009°56'0 0.0
2018-Jun-12 21:00N 53°30' E 009°56'0 0.0
2018-Jun-12 20:30N 53°30' E 009°56'0 0.0
2018-Jun-12 20:00N 53°30' E 009°56'0 0.0
2018-Jun-12 19:30N 53°30' E 009°56'0 0.0
2018-Jun-12 19:00N 53°30' E 009°56'0 0.0
2018-Jun-12 18:30N 53°30' E 009°56'0 0.0
2018-Jun-12 18:00N 53°30' E 009°56'0 0.0
2018-Jun-12 17:30N 53°30' E 009°56'0 0.0
2018-Jun-12 17:00N 53°30' E 009°56'0 0.0
2018-Jun-12 16:30N 53°30' E 009°56'0 0.0
2018-Jun-12 16:00N 53°30' E 009°56'0 0.0
2018-Jun-12 15:30N 53°30' E 009°56'1 1.0
2018-Jun-12 15:00N 53°31' E 009°56'3 5.8
2018-Jun-12 14:30N 53°33' E 009°53'4 8.9
2018-Jun-12 14:00N 53°34' E 009°45'510.5
2018-Jun-12 13:30N 53°35' E 009°37'611.5
2018-Jun-12 13:00N 53°40' E 009°31'611.9
2018-Jun-12 12:30N 53°44' E 009°25'713.4
2018-Jun-12 12:00N 53°50' E 009°20'713.5
2018-Jun-12 11:30N 53°53' E 009°09'510.6
2018-Jun-12 11:00N 53°51' E 009°01'612.3
2018-Jun-12 10:30N 53°50' E 008°51'4 8.3
2018-Jun-12 10:00N 53°52' E 008°44'5 9.2
2018-Jun-12 09:30N 53°56' E 008°40'714.0
2018-Jun-12 09:00N 53°58' E 008°29'816.3
2018-Jun-12 08:30N 53°59' E 008°15'917.3
2018-Jun-12 07:59N 53°58' E 008°00'3 3.8
2018-Jun-12 07:19N 53°58' E 007°56'3 8.2
2018-Jun-12 07:00N 53°57' E 007°51'8815.2
2018-Jun-12 01:11N 53°35' E 005°27'418.7
2018-Jun-12 00:59N 53°34' E 005°21'918.8
2018-Jun-12 00:31N 53°31' E 005°07'1019.1
2018-Jun-12 00:01N 53°27' E 004°52'918.7
2018-Jun-11 23:30N 53°21' E 004°41'1019.6
2018-Jun-11 22:58N 53°11' E 004°33'919.7
2018-Jun-11 22:30N 53°03' E 004°25'1119.5
2018-Jun-11 21:57N 52°54' E 004°16'919.6
2018-Jun-11 21:29N 52°46' E 004°08'919.3
2018-Jun-11 21:00N 52°38' E 004°01'1019.4
2018-Jun-11 20:30N 52°32' E 003°49'1019.1
2018-Jun-11 20:00N 52°25' E 003°37'919.3
2018-Jun-11 19:31N 52°18' E 003°27'1019.0
2018-Jun-11 19:00N 52°11' E 003°17'1018.9
2018-Jun-11 18:30N 52°05' E 003°04'918.8
2018-Jun-11 18:00N 52°01' E 002°51'918.9
2018-Jun-11 17:30N 51°58' E 002°36'918.7
2018-Jun-11 17:00N 51°56' E 002°22'1019.1
2018-Jun-11 16:30N 51°52' E 002°07'1019.0
2018-Jun-11 16:01N 51°49' E 001°53'917.3
2018-Jun-11 15:30N 51°50' E 001°39'4 7.8
2018-Jun-11 15:00N 51°49' E 001°34'713.9
2018-Jun-11 14:30N 51°43' E 001°29'713.3
2018-Jun-11 14:00N 51°38' E 001°21'816.0
2018-Jun-11 13:30N 51°33' E 001°11'918.1
2018-Jun-11 13:00N 51°29' E 000°58'1018.2
2018-Jun-11 12:26N 51°30' E 000°41'614.2
2018-Jun-11 12:00N 51°30' E 000°31'1 1.3
2018-Jun-11 11:25N 51°30' E 000°30'0 0.0
2018-Jun-11 07:13N 51°30' E 000°30'0 0.0
2018-Jun-11 06:59N 51°30' E 000°30'0 0.0
2018-Jun-11 06:30N 51°30' E 000°30'0 0.0
2018-Jun-11 05:55N 51°30' E 000°30'0 0.0
2018-Jun-11 05:30N 51°30' E 000°30'0 0.0
2018-Jun-11 03:32N 51°30' E 000°30'0 0.0
2018-Jun-11 03:30N 51°30' E 000°30'0 0.0
2018-Jun-11 02:59N 51°30' E 000°30'0 0.0
2018-Jun-11 02:20N 51°30' E 000°30'0 0.0
2018-Jun-11 02:00N 51°30' E 000°30'0 0.0
2018-Jun-11 00:41N 51°30' E 000°30'0 0.0
2018-Jun-11 00:30N 51°30' E 000°30'0 0.0
2018-Jun-11 00:01N 51°30' E 000°30'0 0.0
2018-Jun-10 23:30N 51°30' E 000°30'0 0.0
2018-Jun-10 23:00N 51°30' E 000°30'23 1.7
2018-Jun-10 09:40N 51°32' E 001°07'315.4
2018-Jun-10 09:30N 51°33' E 001°10'715.2
2018-Jun-10 09:01N 51°37' E 001°20'816.2
2018-Jun-10 08:30N 51°43' E 001°29'918.0
2018-Jun-10 08:00N 51°50' E 001°39'3 6.2
2018-Jun-10 07:30N 51°52' E 001°42'2 3.6
2018-Jun-10 06:59N 51°54' E 001°42'0 0.0
2018-Jun-10 06:29N 51°54' E 001°42'0 0.0
2018-Jun-10 05:59N 51°54' E 001°42'0 0.0
2018-Jun-10 05:29N 51°54' E 001°42'0 0.0
2018-Jun-10 04:59N 51°54' E 001°42'0 0.0
2018-Jun-10 04:29N 51°54' E 001°42'0 0.0
2018-Jun-10 03:59N 51°54' E 001°43'0 0.0
2018-Jun-10 03:29N 51°54' E 001°43'0 0.1
2018-Jun-10 02:59N 51°54' E 001°43'0 0.2
2018-Jun-10 02:29N 51°54' E 001°42'0 0.3
2018-Jun-10 01:59N 51°54' E 001°42'0 0.1
2018-Jun-10 01:29N 51°55' E 001°43'0 0.1
2018-Jun-10 00:59N 51°55' E 001°43'0 0.0
2018-Jun-10 00:29N 51°55' E 001°43'0 0.0
2018-Jun-09 23:59N 51°55' E 001°43'0 0.1
2018-Jun-09 23:29N 51°55' E 001°43'0 0.0
2018-Jun-09 22:59N 51°55' E 001°43'0 0.1
2018-Jun-09 22:29N 51°55' E 001°43'0 0.2
2018-Jun-09 21:59N 51°55' E 001°43'0 0.3
2018-Jun-09 21:29N 51°54' E 001°43'0 0.3
2018-Jun-09 20:59N 51°54' E 001°43'0 0.1
2018-Jun-09 20:29N 51°54' E 001°42'0 0.0
2018-Jun-09 19:59N 51°54' E 001°42'0 0.0
2018-Jun-09 19:29N 51°54' E 001°42'0 0.0
2018-Jun-09 18:59N 51°54' E 001°42'0 0.0
2018-Jun-09 18:29N 51°54' E 001°42'0 0.0
2018-Jun-09 17:59N 51°54' E 001°42'0 0.0
2018-Jun-09 17:29N 51°54' E 001°42'0 0.0
2018-Jun-09 16:59N 51°54' E 001°42'0 0.0
2018-Jun-09 16:29N 51°54' E 001°42'0 0.0
2018-Jun-09 15:59N 51°54' E 001°42'0 0.0
2018-Jun-09 15:29N 51°54' E 001°42'0 0.0
2018-Jun-09 14:29N 51°54' E 001°42'0 0.0
2018-Jun-09 13:59N 51°54' E 001°42'0 0.1
2018-Jun-09 13:29N 51°54' E 001°42'0 0.4
2018-Jun-09 12:59N 51°54' E 001°43'0 0.3
2018-Jun-09 12:29N 51°55' E 001°43'0 0.0
2018-Jun-09 11:56N 51°55' E 001°43'0 0.0
2018-Jun-09 11:29N 51°55' E 001°43'0 0.3
2018-Jun-09 11:00N 51°54' E 001°43'1 2.9
2018-Jun-09 10:30N 51°53' E 001°44'4 8.7
2018-Jun-09 10:01N 51°50' E 001°50'510.4
2018-Jun-09 09:31N 51°51' E 001°58'611.6
2018-Jun-09 09:01N 51°54' E 002°06'5 8.1
2018-Jun-09 08:25N 51°55' E 002°14'3 7.6
2018-Jun-09 08:00N 51°56' E 002°19'4 7.8
2018-Jun-09 07:31N 51°57' E 002°25'4 8.5
2018-Jun-09 07:00N 51°58' E 002°31'  
Track history (hours):
 
Tides and Currents Weather Stations Pressure Air Temp Water Temp Dewpoint Dewpoint Depression Visibility Wind Speed Wind Dir Waves Ship Positions

MSC Lily

Last reported at 2018-Jun-19 06:56 UTC. Time now 2018-Jun-20 11:22 UTC.
Position N 48°51' W 005°49'.

Length 299 m; draft 12.9 m.

Type: Ship (hazmat cat A). MMSI: 373134000.

Date/timePositionNaut miles runAvg speedWind from/ knotsBaromVisibWave heightAir tempDewpointWater temp
2018-Jun-19 06:56N 48°51' W 005°49'714.9
2018-Jun-19 06:29N 48°56' W 005°41'815.8
2018-Jun-19 05:58N 48°60' W 005°31'715.8
2018-Jun-19 05:30N 49°04' W 005°21'815.8
2018-Jun-19 05:00N 49°07' W 005°11'815.9
2018-Jun-19 04:29N 49°12' W 004°60'815.9
2018-Jun-19 04:00N 49°16' W 004°50'1015.8
2018-Jun-19 03:22N 49°21' W 004°37'715.9
2018-Jun-19 02:56N 49°25' W 004°28'815.8
2018-Jun-19 02:27N 49°29' W 004°18'2516.1
2018-Jun-19 00:55N 49°41' W 003°45'1416.1
2018-Jun-19 00:04N 49°48' W 003°26'316.2
2018-Jun-18 23:51N 49°49' W 003°22'615.9
2018-Jun-18 23:30N 49°52' W 003°14'816.0
2018-Jun-18 23:00N 49°56' W 003°03'815.8
2018-Jun-18 22:30N 49°59' W 002°52'815.7
2018-Jun-18 22:01N 50°01' W 002°41'3315.7
2018-Jun-18 19:55N 50°10' W 001°51'3714.3
2018-Jun-18 17:18N 49°48' W 001°04'515.6
2018-Jun-18 17:00N 49°46' W 000°58'816.0
2018-Jun-18 16:31N 49°43' W 000°47'815.8
2018-Jun-18 16:00N 49°40' W 000°35'816.0
2018-Jun-18 15:30N 49°37' W 000°24'815.4
2018-Jun-18 15:00N 49°33' W 000°14'713.0
2018-Jun-18 14:30N 49°31' W 000°04'714.8
2018-Jun-18 14:00N 49°28' E 000°06'1 2.4
2018-Jun-18 13:30N 49°28' E 000°08'0 0.0
2018-Jun-18 13:00N 49°28' E 000°08'0 0.0
2018-Jun-18 12:30N 49°28' E 000°08'0 0.0
2018-Jun-18 12:00N 49°28' E 000°08'0 0.0
2018-Jun-18 11:30N 49°28' E 000°08'0 0.0
2018-Jun-18 11:00N 49°28' E 000°08'0 0.0
2018-Jun-18 10:30N 49°28' E 000°08'0 0.0
2018-Jun-18 10:00N 49°28' E 000°08'0 0.0
2018-Jun-18 09:27N 49°28' E 000°08'0 0.0
2018-Jun-18 09:00N 49°28' E 000°08'0 0.0
2018-Jun-18 08:30N 49°28' E 000°08'0 0.0
2018-Jun-18 08:00N 49°28' E 000°08'0 0.0
2018-Jun-18 07:30N 49°28' E 000°08'0 0.0
2018-Jun-18 07:00N 49°28' E 000°08'0 0.0
2018-Jun-18 06:30N 49°28' E 000°08'0 0.0
2018-Jun-18 06:00N 49°28' E 000°08'0 0.0
2018-Jun-18 05:30N 49°28' E 000°08'0 0.0
2018-Jun-18 05:00N 49°28' E 000°08'0 0.0
2018-Jun-18 04:30N 49°28' E 000°08'0 0.0
2018-Jun-18 04:00N 49°28' E 000°08'1 1.5
2018-Jun-18 03:30N 49°27' E 000°09'2 4.0
2018-Jun-18 03:00N 49°28' E 000°06'511.0
2018-Jun-18 02:31N 49°30' W 000°01'611.1
2018-Jun-18 02:00N 49°32' W 000°10'3 6.9
2018-Jun-18 01:31N 49°33' W 000°15'510.0
2018-Jun-18 01:01N 49°36' W 000°21'611.5
2018-Jun-18 00:30N 49°40' W 000°27'4 7.1
2018-Jun-18 00:01N 49°43' W 000°28'712.8
2018-Jun-17 23:30N 49°50' W 000°29'715.2
2018-Jun-17 23:00N 49°57' W 000°31'714.7
2018-Jun-17 22:30N 50°05' W 000°31'713.1
2018-Jun-17 22:00N 50°11' W 000°29'1612.3
2018-Jun-17 20:43N 50°25' W 000°18'512.1
2018-Jun-17 20:17N 50°27' W 000°10'613.5
2018-Jun-17 19:52N 50°28' W 000°01'1213.0
2018-Jun-17 18:58N 50°32' E 000°16'713.3
2018-Jun-17 18:28N 50°34' E 000°26'613.2
2018-Jun-17 18:00N 50°35' E 000°36'713.1
2018-Jun-17 17:30N 50°39' E 000°44'713.3
2018-Jun-17 17:00N 50°43' E 000°53'714.6
2018-Jun-17 16:30N 50°47' E 001°02'714.4
2018-Jun-17 16:00N 50°51' E 001°11'714.5
2018-Jun-17 15:31N 50°56' E 001°20'714.4
2018-Jun-17 15:00N 51°02' E 001°27'714.3
2018-Jun-17 14:30N 51°06' E 001°35'714.2
2018-Jun-17 14:00N 51°11' E 001°44'714.3
2018-Jun-17 13:30N 51°17' E 001°51'714.4
2018-Jun-17 13:00N 51°23' E 001°57'612.5
2018-Jun-17 12:30N 51°24' E 002°07'714.0
2018-Jun-17 12:00N 51°21' E 002°17'714.3
2018-Jun-17 11:30N 51°23' E 002°28'814.7
2018-Jun-17 10:55N 51°23' E 002°41'511.8
2018-Jun-17 10:31N 51°25' E 002°49'815.4
2018-Jun-17 10:01N 51°25' E 003°01'815.7
2018-Jun-17 09:29N 51°25' E 003°14'816.3
2018-Jun-17 09:01N 51°25' E 003°27'611.2
2018-Jun-17 08:30N 51°26' E 003°35'5 9.4
2018-Jun-17 08:00N 51°25' E 003°43'612.8
2018-Jun-17 07:30N 51°21' E 003°51'714.2
2018-Jun-17 07:00N 51°26' E 003°59'612.4
2018-Jun-17 06:31N 51°22' E 004°07'510.7
2018-Jun-17 06:00N 51°21' E 004°15'3 6.7
2018-Jun-17 05:30N 51°18' E 004°16'1 1.9
2018-Jun-17 04:58N 51°17' E 004°15'0 0.0
2018-Jun-17 04:28N 51°17' E 004°15'0 0.0
2018-Jun-17 03:58N 51°17' E 004°15'0 0.0
2018-Jun-17 03:28N 51°17' E 004°15'0 0.0
2018-Jun-17 02:58N 51°17' E 004°15'0 0.0
2018-Jun-17 02:28N 51°17' E 004°15'0 0.0
2018-Jun-17 01:58N 51°17' E 004°15'0 0.0
2018-Jun-17 01:28N 51°17' E 004°15'0 0.0
2018-Jun-17 00:58N 51°17' E 004°15'0 0.0
2018-Jun-17 00:28N 51°17' E 004°15'0 0.0
2018-Jun-16 23:58N 51°17' E 004°15'0 0.0
2018-Jun-16 23:28N 51°17' E 004°15'0 0.0
2018-Jun-16 22:58N 51°17' E 004°15'0 0.0
2018-Jun-16 22:28N 51°17' E 004°15'0 0.0
2018-Jun-16 21:58N 51°17' E 004°15'0 0.0
2018-Jun-16 21:28N 51°17' E 004°15'0 0.0
2018-Jun-16 20:58N 51°17' E 004°15'0 0.0
2018-Jun-16 20:28N 51°17' E 004°15'0 0.0
2018-Jun-16 19:58N 51°17' E 004°15'0 0.0
2018-Jun-16 19:28N 51°17' E 004°15'0 0.0
2018-Jun-16 18:58N 51°17' E 004°15'0 0.0
2018-Jun-16 18:28N 51°17' E 004°15'0 0.0
2018-Jun-16 17:58N 51°17' E 004°15'0 0.0
2018-Jun-16 17:28N 51°17' E 004°15'0 0.0
2018-Jun-16 16:58N 51°17' E 004°15'0 0.0
2018-Jun-16 16:28N 51°17' E 004°15'0 0.0
2018-Jun-16 15:58N 51°17' E 004°15'0 0.0
2018-Jun-16 15:28N 51°17' E 004°15'0 0.0
2018-Jun-16 14:58N 51°17' E 004°15'0 0.0
2018-Jun-16 14:28N 51°17' E 004°15'0 0.0
2018-Jun-16 13:58N 51°17' E 004°15'0 0.0
2018-Jun-16 13:28N 51°17' E 004°15'0 0.0
2018-Jun-16 12:55N 51°17' E 004°15'0 0.0
2018-Jun-16 12:28N 51°17' E 004°15'0 0.0
2018-Jun-16 11:58N 51°17' E 004°15'0 0.0
2018-Jun-16 11:28N 51°17' E 004°15'0 0.0
2018-Jun-16 10:58N 51°17' E 004°15'0 0.0
2018-Jun-16 10:28N 51°17' E 004°15'0 0.0
2018-Jun-16 09:58N 51°17' E 004°15'0 0.0
2018-Jun-16 09:28N 51°17' E 004°15'0 0.0
2018-Jun-16 08:58N 51°17' E 004°15'0 0.0
2018-Jun-16 08:28N 51°17' E 004°15'0 0.0
2018-Jun-16 07:58N 51°17' E 004°15'0 0.0
2018-Jun-16 07:28N 51°17' E 004°15'0 0.0
2018-Jun-16 06:58N 51°17' E 004°15'0 0.0
2018-Jun-16 06:25N 51°17' E 004°15'0 0.0
2018-Jun-16 05:58N 51°17' E 004°15'0 0.0
2018-Jun-16 05:28N 51°17' E 004°15'0 0.0
2018-Jun-16 04:58N 51°17' E 004°15'0 0.0
2018-Jun-16 04:28N 51°17' E 004°15'0 0.0
2018-Jun-16 03:58N 51°17' E 004°15'0 0.0
2018-Jun-16 03:30N 51°17' E 004°15'0 0.0
2018-Jun-16 03:00N 51°17' E 004°15'0 0.0
2018-Jun-16 02:30N 51°17' E 004°15'0 0.1
2018-Jun-16 02:01N 51°17' E 004°15'1 2.4
2018-Jun-16 01:30N 51°18' E 004°16'1 2.5
2018-Jun-16 01:00N 51°19' E 004°16'5 9.6
2018-Jun-16 00:31N 51°23' E 004°13'612.1
2018-Jun-16 00:00N 51°23' E 004°03'4 7.8
2018-Jun-15 23:30N 51°25' E 003°58'612.1
2018-Jun-15 23:01N 51°21' E 003°50'713.2
2018-Jun-15 22:30N 51°25' E 003°42'5 9.8
2018-Jun-15 22:00N 51°25' E 003°35'713.1
2018-Jun-15 21:31N 51°24' E 003°24'816.2
2018-Jun-15 21:00N 51°24' E 003°11'714.5
2018-Jun-15 20:30N 51°25' E 002°60'816.3
2018-Jun-15 20:00N 51°32' E 003°06'919.0
2018-Jun-15 19:30N 51°41' E 003°12'612.3
2018-Jun-15 19:00N 51°47' E 003°15'510.3
2018-Jun-15 18:30N 51°52' E 003°17'918.0
2018-Jun-15 18:00N 52°00' E 003°19'815.6
2018-Jun-15 17:30N 52°08' E 003°21'816.4
2018-Jun-15 17:00N 52°16' E 003°22'917.6
2018-Jun-15 16:30N 52°25' E 003°26'918.9
2018-Jun-15 16:00N 52°34' E 003°29'917.2
2018-Jun-15 15:30N 52°42' E 003°36'918.0
2018-Jun-15 15:00N 52°48' E 003°46'918.4
2018-Jun-15 14:30N 52°56' E 003°55'1019.4
2018-Jun-15 14:00N 53°01' E 004°08'1020.0
2018-Jun-15 13:30N 53°08' E 004°21'1020.0
2018-Jun-15 13:00N 53°16' E 004°29'1020.2
2018-Jun-15 12:30N 53°26' E 004°36'1019.2
2018-Jun-15 12:00N 53°32' E 004°49'1020.1
2018-Jun-15 11:30N 53°35' E 005°05'1020.8
2018-Jun-15 11:00N 53°39' E 005°21'1121.1
2018-Jun-15 10:29N 53°42' E 005°39'6019.8
2018-Jun-15 07:26N 53°58' E 007°17'920.1
2018-Jun-15 07:00N 54°00' E 007°32'816.9
2018-Jun-15 06:30N 53°55' E 007°44'917.0
2018-Jun-15 05:59N 53°52' E 007°57'817.4
2018-Jun-15 05:30N 53°47' E 008°09'816.8
2018-Jun-15 05:00N 53°42' E 008°20'816.3
2018-Jun-15 04:30N 53°36' E 008°30'2 4.7
2018-Jun-15 04:01N 53°35' E 008°32'0 0.0
2018-Jun-15 03:28N 53°35' E 008°32'0 0.0
2018-Jun-15 03:00N 53°35' E 008°32'0 0.0
2018-Jun-15 02:30N 53°35' E 008°32'0 0.0
2018-Jun-15 01:58N 53°35' E 008°32'0 0.0
2018-Jun-15 01:31N 53°35' E 008°32'0 0.0
2018-Jun-15 01:00N 53°35' E 008°32'0 0.0
2018-Jun-15 00:31N 53°35' E 008°32'0 0.0
2018-Jun-15 00:00N 53°35' E 008°32'0 0.0
2018-Jun-14 23:31N 53°35' E 008°32'0 0.0
2018-Jun-14 23:00N 53°35' E 008°32'0 0.0
2018-Jun-14 22:31N 53°35' E 008°32'0 0.0
2018-Jun-14 22:00N 53°35' E 008°32'0 0.0
2018-Jun-14 21:30N 53°35' E 008°32'0 0.0
2018-Jun-14 21:00N 53°35' E 008°32'0 0.0
2018-Jun-14 20:30N 53°35' E 008°32'0 0.0
2018-Jun-14 20:00N 53°35' E 008°32'0 0.0
2018-Jun-14 19:31N 53°35' E 008°32'0 0.0
2018-Jun-14 19:01N 53°35' E 008°32'0 0.0
2018-Jun-14 18:30N 53°35' E 008°32'0 0.0
2018-Jun-14 18:01N 53°35' E 008°32'0 0.0
2018-Jun-14 17:30N 53°35' E 008°32'0 0.0
2018-Jun-14 17:00N 53°35' E 008°32'0 0.0
2018-Jun-14 16:30N 53°35' E 008°32'0 0.0
2018-Jun-14 16:00N 53°35' E 008°32'0 0.0
2018-Jun-14 15:30N 53°35' E 008°32'0 0.0
2018-Jun-14 15:00N 53°35' E 008°32'0 0.0
2018-Jun-14 14:28N 53°35' E 008°32'0 0.0
2018-Jun-14 13:58N 53°35' E 008°32'0 0.0
2018-Jun-14 13:31N 53°35' E 008°32'0 0.0
2018-Jun-14 13:00N 53°35' E 008°32'0 0.0
2018-Jun-14 12:30N 53°35' E 008°32'0 0.0
2018-Jun-14 12:01N 53°35' E 008°32'0 0.0
2018-Jun-14 11:30N 53°35' E 008°32'0 0.0
2018-Jun-14 11:00N 53°35' E 008°32'0 0.0
2018-Jun-14 10:30N 53°35' E 008°32'0 0.0
2018-Jun-14 10:00N 53°35' E 008°32'0 0.0
2018-Jun-14 09:30N 53°35' E 008°32'0 0.0
2018-Jun-14 09:01N 53°35' E 008°32'0 0.0
2018-Jun-14 08:30N 53°35' E 008°32'0 0.6
2018-Jun-14 08:00N 53°35' E 008°32'4 7.2
2018-Jun-14 07:30N 53°37' E 008°28'611.3
2018-Jun-14 07:00N 53°41' E 008°21'612.9
2018-Jun-14 06:30N 53°45' E 008°12'612.4
2018-Jun-14 06:00N 53°50' E 008°05'713.1
2018-Jun-14 05:28N 53°52' E 007°54'5 9.6
2018-Jun-14 04:57N 53°56' E 007°50'511.5
2018-Jun-14 04:30N 54°00' E 007°54'815.4
2018-Jun-14 03:59N 54°01' E 008°08'714.1
2018-Jun-14 03:30N 53°60' E 008°20'1020.1
2018-Jun-14 03:00N 53°58' E 008°36'816.6
2018-Jun-14 02:30N 53°51' E 008°45'715.0
2018-Jun-14 02:01N 53°51' E 008°58'713.6
2018-Jun-14 01:30N 53°53' E 009°09'611.7
2018-Jun-14 01:00N 53°51' E 009°19'611.8
2018-Jun-14 00:30N 53°46' E 009°24'5 9.7
2018-Jun-14 00:01N 53°43' E 009°29'5 9.4
2018-Jun-13 23:30N 53°38' E 009°32'510.0
2018-Jun-13 23:00N 53°35' E 009°38'4 8.6
2018-Jun-13 22:30N 53°34' E 009°45'4 9.0
2018-Jun-13 22:01N 53°33' E 009°52'2 3.8
2018-Jun-13 21:30N 53°32' E 009°55'2 4.8
2018-Jun-13 21:00N 53°30' E 009°56'0 0.2
2018-Jun-13 20:30N 53°30' E 009°56'0 0.0
2018-Jun-13 20:00N 53°30' E 009°56'0 0.0
2018-Jun-13 19:30N 53°30' E 009°56'0 0.0
2018-Jun-13 19:00N 53°30' E 009°56'0 0.0
2018-Jun-13 18:30N 53°30' E 009°56'0 0.0
2018-Jun-13 18:00N 53°30' E 009°56'0 0.0
2018-Jun-13 17:30N 53°30' E 009°56'0 0.0
2018-Jun-13 17:00N 53°30' E 009°56'0 0.0
2018-Jun-13 16:30N 53°30' E 009°56'0 0.0
2018-Jun-13 16:00N 53°30' E 009°56'0 0.0
2018-Jun-13 15:30N 53°30' E 009°56'0 0.0
2018-Jun-13 15:00N 53°30' E 009°56'0 0.0
2018-Jun-13 14:30N 53°30' E 009°56'0 0.0
2018-Jun-13 14:00N 53°30' E 009°56'0 0.0
2018-Jun-13 13:30N 53°30' E 009°56'0 0.0
2018-Jun-13 13:00N 53°30' E 009°56'0 0.0
2018-Jun-13 12:30N 53°30' E 009°56'0 0.0
2018-Jun-13 12:00N 53°30' E 009°56'0 0.0
2018-Jun-13 11:30N 53°30' E 009°56'0 0.0
2018-Jun-13 11:00N 53°30' E 009°56'0 0.0
2018-Jun-13 10:30N 53°30' E 009°56'0 0.0
2018-Jun-13 10:00N 53°30' E 009°56'0 0.0
2018-Jun-13 09:30N 53°30' E 009°56'0 0.0
2018-Jun-13 09:00N 53°30' E 009°56'0 0.0
2018-Jun-13 08:30N 53°30' E 009°56'0 0.0
2018-Jun-13 08:00N 53°30' E 009°56'0 0.0
2018-Jun-13 07:30N 53°30' E 009°56'0 0.0
2018-Jun-13 07:00N 53°30' E 009°56'0 0.0
2018-Jun-13 06:30N 53°30' E 009°56'0 0.0
2018-Jun-13 06:00N 53°30' E 009°56'0 0.0
2018-Jun-13 05:30N 53°30' E 009°56'0 0.0
2018-Jun-13 05:00N 53°30' E 009°56'0 0.0
2018-Jun-13 04:30N 53°30' E 009°56'0 0.0
2018-Jun-13 04:00N 53°30' E 009°56'0 0.0
2018-Jun-13 03:30N 53°30' E 009°56'0 0.0
2018-Jun-13 03:00N 53°30' E 009°56'0 0.0
2018-Jun-13 02:30N 53°30' E 009°56'0 0.0
2018-Jun-13 02:00N 53°30' E 009°56'0 0.0
2018-Jun-13 01:30N 53°30' E 009°56'0 0.0
2018-Jun-13 01:00N 53°30' E 009°56'0 0.0
2018-Jun-13 00:30N 53°30' E 009°56'0 0.0
2018-Jun-13 00:00N 53°30' E 009°56'0 0.0
2018-Jun-12 23:30N 53°30' E 009°56'0 0.0
2018-Jun-12 23:00N 53°30' E 009°56'0 0.0
2018-Jun-12 22:30N 53°30' E 009°56'0 0.0
2018-Jun-12 22:00N 53°30' E 009°56'0 0.0
2018-Jun-12 21:30N 53°30' E 009°56'0 0.0
2018-Jun-12 21:00N 53°30' E 009°56'0 0.0
2018-Jun-12 20:30N 53°30' E 009°56'0 0.0
2018-Jun-12 20:00N 53°30' E 009°56'0 0.0
2018-Jun-12 19:30N 53°30' E 009°56'0 0.0
2018-Jun-12 19:00N 53°30' E 009°56'0 0.0
2018-Jun-12 18:30N 53°30' E 009°56'0 0.0
2018-Jun-12 18:00N 53°30' E 009°56'0 0.0
2018-Jun-12 17:30N 53°30' E 009°56'0 0.0
2018-Jun-12 17:00N 53°30' E 009°56'0 0.0
2018-Jun-12 16:30N 53°30' E 009°56'0 0.0
2018-Jun-12 16:00N 53°30' E 009°56'0 0.0
2018-Jun-12 15:30N 53°30' E 009°56'1 1.0
2018-Jun-12 15:00N 53°31' E 009°56'3 5.8
2018-Jun-12 14:30N 53°33' E 009°53'4 8.9
2018-Jun-12 14:00N 53°34' E 009°45'510.5
2018-Jun-12 13:30N 53°35' E 009°37'611.5
2018-Jun-12 13:00N 53°40' E 009°31'611.9
2018-Jun-12 12:30N 53°44' E 009°25'713.4
2018-Jun-12 12:00N 53°50' E 009°20'713.5
2018-Jun-12 11:30N 53°53' E 009°09'510.6
2018-Jun-12 11:00N 53°51' E 009°01'612.3
2018-Jun-12 10:30N 53°50' E 008°51'4 8.3
2018-Jun-12 10:00N 53°52' E 008°44'5 9.2
2018-Jun-12 09:30N 53°56' E 008°40'714.0
2018-Jun-12 09:00N 53°58' E 008°29'816.3
2018-Jun-12 08:30N 53°59' E 008°15'917.3
2018-Jun-12 07:59N 53°58' E 008°00'3 3.8
2018-Jun-12 07:19N 53°58' E 007°56'3 8.2
2018-Jun-12 07:00N 53°57' E 007°51'8815.2
2018-Jun-12 01:11N 53°35' E 005°27'418.7
2018-Jun-12 00:59N 53°34' E 005°21'918.8
2018-Jun-12 00:31N 53°31' E 005°07'1019.1
2018-Jun-12 00:01N 53°27' E 004°52'918.7
2018-Jun-11 23:30N 53°21' E 004°41'1019.6
2018-Jun-11 22:58N 53°11' E 004°33'919.7
2018-Jun-11 22:30N 53°03' E 004°25'1119.5
2018-Jun-11 21:57N 52°54' E 004°16'919.6
2018-Jun-11 21:29N 52°46' E 004°08'919.3
2018-Jun-11 21:00N 52°38' E 004°01'1019.4
2018-Jun-11 20:30N 52°32' E 003°49'1019.1
2018-Jun-11 20:00N 52°25' E 003°37'919.3
2018-Jun-11 19:31N 52°18' E 003°27'1019.0
2018-Jun-11 19:00N 52°11' E 003°17'1018.9
2018-Jun-11 18:30N 52°05' E 003°04'918.8
2018-Jun-11 18:00N 52°01' E 002°51'918.9
2018-Jun-11 17:30N 51°58' E 002°36'918.7
2018-Jun-11 17:00N 51°56' E 002°22'1019.1
2018-Jun-11 16:30N 51°52' E 002°07'1019.0
2018-Jun-11 16:01N 51°49' E 001°53'917.3
2018-Jun-11 15:30N 51°50' E 001°39'4 7.8
2018-Jun-11 15:00N 51°49' E 001°34'713.9
2018-Jun-11 14:30N 51°43' E 001°29'713.3
2018-Jun-11 14:00N 51°38' E 001°21'816.0
2018-Jun-11 13:30N 51°33' E 001°11'918.1
2018-Jun-11 13:00N 51°29' E 000°58'1018.2
2018-Jun-11 12:26N 51°30' E 000°41'614.2
2018-Jun-11 12:00N 51°30' E 000°31'1 1.3
2018-Jun-11 11:25N 51°30' E 000°30'0 0.0
2018-Jun-11 07:13N 51°30' E 000°30'0 0.0
2018-Jun-11 06:59N 51°30' E 000°30'0 0.0
2018-Jun-11 06:30N 51°30' E 000°30'0 0.0
2018-Jun-11 05:55N 51°30' E 000°30'0 0.0
2018-Jun-11 05:30N 51°30' E 000°30'0 0.0
2018-Jun-11 03:32N 51°30' E 000°30'0 0.0
2018-Jun-11 03:30N 51°30' E 000°30'0 0.0
2018-Jun-11 02:59N 51°30' E 000°30'0 0.0
2018-Jun-11 02:20N 51°30' E 000°30'0 0.0
2018-Jun-11 02:00N 51°30' E 000°30'0 0.0
2018-Jun-11 00:41N 51°30' E 000°30'0 0.0
2018-Jun-11 00:30N 51°30' E 000°30'0 0.0
2018-Jun-11 00:01N 51°30' E 000°30'0 0.0
2018-Jun-10 23:30N 51°30' E 000°30'0 0.0
2018-Jun-10 23:00N 51°30' E 000°30'23 1.7
2018-Jun-10 09:40N 51°32' E 001°07'315.4
2018-Jun-10 09:30N 51°33' E 001°10'715.2
2018-Jun-10 09:01N 51°37' E 001°20'816.2
2018-Jun-10 08:30N 51°43' E 001°29'918.0
2018-Jun-10 08:00N 51°50' E 001°39'3 6.2
2018-Jun-10 07:30N 51°52' E 001°42'2 3.6
2018-Jun-10 06:59N 51°54' E 001°42'0 0.0
2018-Jun-10 06:29N 51°54' E 001°42'0 0.0
2018-Jun-10 05:59N 51°54' E 001°42'0 0.0
2018-Jun-10 05:29N 51°54' E 001°42'0 0.0
2018-Jun-10 04:59N 51°54' E 001°42'0 0.0
2018-Jun-10 04:29N 51°54' E 001°42'0 0.0
2018-Jun-10 03:59N 51°54' E 001°43'0 0.0
2018-Jun-10 03:29N 51°54' E 001°43'0 0.1
2018-Jun-10 02:59N 51°54' E 001°43'0 0.2
2018-Jun-10 02:29N 51°54' E 001°42'0 0.3
2018-Jun-10 01:59N 51°54' E 001°42'0 0.1
2018-Jun-10 01:29N 51°55' E 001°43'0 0.1
2018-Jun-10 00:59N 51°55' E 001°43'0 0.0
2018-Jun-10 00:29N 51°55' E 001°43'0 0.0
2018-Jun-09 23:59N 51°55' E 001°43'0 0.1
2018-Jun-09 23:29N 51°55' E 001°43'0 0.0
2018-Jun-09 22:59N 51°55' E 001°43'0 0.1
2018-Jun-09 22:29N 51°55' E 001°43'0 0.2
2018-Jun-09 21:59N 51°55' E 001°43'0 0.3
2018-Jun-09 21:29N 51°54' E 001°43'0 0.3
2018-Jun-09 20:59N 51°54' E 001°43'0 0.1
2018-Jun-09 20:29N 51°54' E 001°42'0 0.0
2018-Jun-09 19:59N 51°54' E 001°42'0 0.0
2018-Jun-09 19:29N 51°54' E 001°42'0 0.0
2018-Jun-09 18:59N 51°54' E 001°42'0 0.0
2018-Jun-09 18:29N 51°54' E 001°42'0 0.0
2018-Jun-09 17:59N 51°54' E 001°42'0 0.0
2018-Jun-09 17:29N 51°54' E 001°42'0 0.0
2018-Jun-09 16:59N 51°54' E 001°42'0 0.0
2018-Jun-09 16:29N 51°54' E 001°42'0 0.0
2018-Jun-09 15:59N 51°54' E 001°42'0 0.0
2018-Jun-09 15:29N 51°54' E 001°42'0 0.0
2018-Jun-09 14:29N 51°54' E 001°42'0 0.0
2018-Jun-09 13:59N 51°54' E 001°42'0 0.1
2018-Jun-09 13:29N 51°54' E 001°42'0 0.4
2018-Jun-09 12:59N 51°54' E 001°43'0 0.3
2018-Jun-09 12:29N 51°55' E 001°43'0 0.0
2018-Jun-09 11:56N 51°55' E 001°43'0 0.0
2018-Jun-09 11:29N 51°55' E 001°43'0 0.3
2018-Jun-09 11:00N 51°54' E 001°43'1 2.9
2018-Jun-09 10:30N 51°53' E 001°44'4 8.7
2018-Jun-09 10:01N 51°50' E 001°50'510.4
2018-Jun-09 09:31N 51°51' E 001°58'611.6
2018-Jun-09 09:01N 51°54' E 002°06'5 8.1
2018-Jun-09 08:25N 51°55' E 002°14'3 7.6
2018-Jun-09 08:00N 51°56' E 002°19'4 7.8
2018-Jun-09 07:31N 51°57' E 002°25'4 8.5
2018-Jun-09 07:00N 51°58' E 002°31'  

Dump ship's entire track history